Portada
METAR-TAF:

METAR-TAF

Aeroports :

Pottstown Limerick Airport

Pottstown, Pennsilvània, Estats Units d'Amèrica

latitud: 40-14-18N, longitud: 075-33-26W, altitud: 89 m

Observació

L'informe es va fer fa 43 minuts, a les 08:54 UTC
Vent calma
Temperatura 2°C
Humitat 80%
Pressió 1030 hPa
Visibilitat: 16.1 km
Cel cobert a una alçada de 5500 ft

METAR: KPTW 310854Z AUTO 00000KT 10SM OVC055 02/M01 A3043 RMK AO2 SLP304 T00171011 51022

Hora: 05:37 (09:37 UTC)


TAF: manca

Observacions i pronòstics meteorològics de més de 4000 aeroports (METAR i TAF).

Les estacions disponibles són els punts grocs i vermells al mapa.

Posi el ratolí al punt desitjat per veure el nom de l'estació.

Feu clic per veure les observacions i els pronòstics meteorològics.

Per canviar el mapa: feu clic els botons verds amb una creu de color negre per apropar; al botó verd amb un guió per allunyar la imatge; o en les fletxes verdes per a mapes adjacents.


METAR-TAF: